createdAt,value
2019-04-14T00:01:30.480Z,7.70
2019-04-14T00:04:22.666Z,7.70
2019-04-14T00:06:52.599Z,7.70
2019-04-14T00:09:22.726Z,7.60
2019-04-14T00:11:52.698Z,7.70
2019-04-14T00:14:22.929Z,7.70
2019-04-14T00:16:53.196Z,7.70
2019-04-14T00:19:23.772Z,7.60
2019-04-14T00:21:54.186Z,7.60
2019-04-14T00:24:24.911Z,7.60
2019-04-14T00:26:55.223Z,7.70
2019-04-14T00:29:24.674Z,7.70
2019-04-14T00:31:55.361Z,7.70
2019-04-14T00:34:44.112Z,7.80
2019-04-14T00:37:21.118Z,7.80
2019-04-14T00:39:53.280Z,7.80
2019-04-14T00:42:34.717Z,7.80
2019-04-14T00:45:32.184Z,7.70
2019-04-14T00:48:03.509Z,7.60
2019-04-14T00:50:29.734Z,7.60
2019-04-14T00:52:59.274Z,7.70
2019-04-14T00:55:29.253Z,7.70
2019-04-14T00:57:59.484Z,7.70
2019-04-14T01:00:29.746Z,7.80
2019-04-14T01:03:00.180Z,7.70
2019-04-14T01:08:00.976Z,7.60
2019-04-14T01:10:30.309Z,7.50
2019-04-14T01:13:00.608Z,7.50
2019-04-14T01:17:59.283Z,7.60
2019-04-14T01:20:29.601Z,7.60
2019-04-14T01:22:59.825Z,7.70
2019-04-14T01:25:30.229Z,7.60
2019-04-14T01:28:00.328Z,7.60
2019-04-14T01:30:30.620Z,7.50
2019-04-14T01:33:01.019Z,7.50
2019-04-14T01:35:31.415Z,7.50
2019-04-14T01:38:01.635Z,7.50
2019-04-14T01:40:31.467Z,7.70
2019-04-14T01:43:01.693Z,7.40
2019-04-14T01:45:31.740Z,7.40
2019-04-14T01:48:01.727Z,7.40
2019-04-14T01:50:53.832Z,7.00
2019-04-14T01:53:51.261Z,7.40
2019-04-14T01:58:57.922Z,7.30
2019-04-14T02:01:30.356Z,7.30
2019-04-14T02:04:00.658Z,7.20
2019-04-14T02:06:31.278Z,7.20
2019-04-14T02:09:01.187Z,7.20
2019-04-14T02:11:31.374Z,7.20
2019-04-14T02:14:01.589Z,7.20
2019-04-14T02:16:39.710Z,7.20
2019-04-14T02:19:02.467Z,7.20
2019-04-14T02:21:32.427Z,7.20
2019-04-14T02:24:02.548Z,7.20
2019-04-14T02:26:32.962Z,7.20
2019-04-14T02:29:03.504Z,7.20
2019-04-14T02:32:01.443Z,7.50
2019-04-14T02:34:36.239Z,7.20
2019-04-14T02:37:08.099Z,7.20
2019-04-14T02:42:28.310Z,7.30
2019-04-14T02:44:38.012Z,7.20
2019-04-14T02:47:27.400Z,7.20
2019-04-14T02:52:14.440Z,7.30
2019-04-14T02:54:51.804Z,7.30
2019-04-14T02:57:23.049Z,7.30
2019-04-14T02:59:45.275Z,7.40
2019-04-14T03:04:44.830Z,7.00
2019-04-14T03:07:51.568Z,7.10
2019-04-14T03:09:52.407Z,7.00
2019-04-14T03:12:16.792Z,7.10
2019-04-14T03:14:53.752Z,7.10
2019-04-14T03:17:30.243Z,7.00
2019-04-14T03:23:13.853Z,7.10
2019-04-14T03:25:30.106Z,7.20
2019-04-14T03:28:41.455Z,7.30
2019-04-14T03:36:46.310Z,7.20
2019-04-14T03:43:41.429Z,7.20
2019-04-14T03:53:47.027Z,7.20
2019-04-14T03:56:31.596Z,7.20
2019-04-14T03:59:01.887Z,7.20
2019-04-14T04:01:32.292Z,7.10
2019-04-14T04:04:01.707Z,7.10
2019-04-14T04:06:31.365Z,7.20
2019-04-14T04:09:01.808Z,7.20
2019-04-14T04:11:32.211Z,7.20
2019-04-14T04:14:01.646Z,7.30
2019-04-14T04:16:59.505Z,7.30
2019-04-14T04:19:46.994Z,7.30
2019-04-14T04:22:41.417Z,7.30
2019-04-14T04:25:35.897Z,7.20
2019-04-14T04:28:10.112Z,7.30
2019-04-14T04:30:47.641Z,7.40
2019-04-14T04:33:35.861Z,7.40
2019-04-14T04:36:13.940Z,7.40
2019-04-14T04:38:55.335Z,7.40
2019-04-14T04:41:25.362Z,7.40
2019-04-14T04:43:56.032Z,7.50
2019-04-14T04:46:26.509Z,7.50
2019-04-14T04:49:03.379Z,7.60
2019-04-14T04:51:26.970Z,7.70
2019-04-14T04:53:57.050Z,7.60
2019-04-14T04:56:27.479Z,7.70
2019-04-14T04:58:56.914Z,7.70
2019-04-14T05:01:27.388Z,7.70
2019-04-14T05:03:57.875Z,7.60
2019-04-14T05:06:57.070Z,7.60
2019-04-14T05:09:44.849Z,7.50
2019-04-14T05:12:43.497Z,7.60
2019-04-14T05:15:38.062Z,7.60
2019-04-14T05:18:09.113Z,7.60
2019-04-14T05:20:39.776Z,7.80
2019-04-14T05:23:10.224Z,7.90
2019-04-14T05:25:40.729Z,7.90
2019-04-14T05:28:11.238Z,8.00
2019-04-14T05:30:41.486Z,8.30
2019-04-14T05:33:12.003Z,8.20
2019-04-14T05:35:42.341Z,8.20
2019-04-14T05:38:12.666Z,8.30
2019-04-14T05:40:42.877Z,8.50
2019-04-14T05:43:13.395Z,8.50
2019-04-14T05:45:43.700Z,8.50
2019-04-14T05:48:13.961Z,8.50
2019-04-14T05:50:44.366Z,8.70
2019-04-14T05:53:13.968Z,8.80
2019-04-14T05:55:43.839Z,9.00
2019-04-14T05:58:14.297Z,8.80
2019-04-14T06:00:46.469Z,8.90
2019-04-14T06:03:16.727Z,8.80
2019-04-14T06:05:46.085Z,8.80
2019-04-14T06:08:15.342Z,8.90
2019-04-14T06:10:44.606Z,9.20
2019-04-14T06:13:13.894Z,9.10
2019-04-14T06:15:43.156Z,9.80
2019-04-14T06:18:12.469Z,9.30
2019-04-14T06:20:41.777Z,9.30
2019-04-14T06:23:11.021Z,9.50
2019-04-14T06:25:40.266Z,9.40
2019-04-14T06:28:09.601Z,9.70
2019-04-14T06:30:56.586Z,9.60
2019-04-14T06:33:43.777Z,9.70
2019-04-14T06:36:41.189Z,9.20
2019-04-14T06:39:29.416Z,9.90
2019-04-14T06:41:58.750Z,10.70
2019-04-14T06:44:28.074Z,10.10
2019-04-14T06:46:57.378Z,10.30
2019-04-14T06:49:26.633Z,10.30
2019-04-14T06:51:55.898Z,10.60
2019-04-14T06:54:25.165Z,10.60
2019-04-14T06:56:54.510Z,10.60
2019-04-14T06:59:23.831Z,10.70
2019-04-14T07:01:53.092Z,10.70
2019-04-14T07:04:22.377Z,10.80
2019-04-14T07:06:51.650Z,11.10
2019-04-14T07:09:20.910Z,11.00
2019-04-14T07:11:50.182Z,11.00
2019-04-14T07:14:19.433Z,11.00
2019-04-14T07:16:51.306Z,10.90
2019-04-14T07:19:19.717Z,11.00
2019-04-14T07:21:49.095Z,11.30
2019-04-14T07:24:18.366Z,11.40
2019-04-14T07:26:47.750Z,11.40
2019-04-14T07:29:17.088Z,11.60
2019-04-14T07:32:17.433Z,11.80
2019-04-14T07:34:56.835Z,11.80
2019-04-14T07:37:54.139Z,11.90
2019-04-14T07:40:42.345Z,11.80
2019-04-14T07:43:21.122Z,11.90
2019-04-14T07:46:14.956Z,11.90
2019-04-14T07:48:51.198Z,12.10
2019-04-14T07:51:37.409Z,12.30
2019-04-14T07:54:17.057Z,12.50
2019-04-14T07:56:55.575Z,12.50
2019-04-14T07:59:34.337Z,12.80
2019-04-14T08:02:11.401Z,13.00
2019-04-14T08:04:45.666Z,13.10
2019-04-14T08:07:14.922Z,13.20
2019-04-14T08:09:44.189Z,13.30
2019-04-14T08:12:13.486Z,13.40
2019-04-14T08:14:42.743Z,13.50
2019-04-14T08:17:12.086Z,13.40
2019-04-14T08:19:41.355Z,13.60
2019-04-14T08:22:10.640Z,13.80
2019-04-14T08:24:39.905Z,13.80
2019-04-14T08:27:09.170Z,14.20
2019-04-14T08:29:38.488Z,14.20
2019-04-14T08:32:07.825Z,14.10
2019-04-14T08:34:37.158Z,14.70
2019-04-14T08:37:06.521Z,14.90
2019-04-14T08:39:35.929Z,14.90
2019-04-14T08:42:27.330Z,14.80
2019-04-14T08:44:57.842Z,14.70
2019-04-14T08:47:50.873Z,14.60
2019-04-14T08:50:25.577Z,14.90
2019-04-14T08:53:22.937Z,15.40
2019-04-14T08:56:14.157Z,16.70
2019-04-14T08:59:02.361Z,19.90
2019-04-14T09:01:40.070Z,23.00
2019-04-14T09:04:29.457Z,25.50
2019-04-14T09:07:08.805Z,25.80
2019-04-14T09:09:43.654Z,26.40
2019-04-14T09:12:16.284Z,27.70
2019-04-14T09:14:56.423Z,29.70
2019-04-14T09:17:16.894Z,31.00
2019-04-14T09:19:46.157Z,31.70
2019-04-14T09:22:15.453Z,31.90
2019-04-14T09:24:44.885Z,32.10
2019-04-14T09:27:14.177Z,31.40
2019-04-14T09:29:43.471Z,31.70
2019-04-14T09:32:13.921Z,31.60
2019-04-14T09:34:43.430Z,31.00
2019-04-14T09:37:12.948Z,31.10
2019-04-14T09:39:43.158Z,28.90
2019-04-14T09:42:12.718Z,27.80
2019-04-14T09:44:42.406Z,27.40
2019-04-14T09:47:12.783Z,27.40
2019-04-14T09:49:42.054Z,27.00
2019-04-14T09:52:11.313Z,26.70
2019-04-14T09:54:41.001Z,27.00
2019-04-14T09:57:10.270Z,27.80
2019-04-14T09:59:39.565Z,27.40
2019-04-14T10:02:08.838Z,25.70
2019-04-14T10:04:38.185Z,25.50
2019-04-14T10:07:07.454Z,29.40
2019-04-14T10:09:36.797Z,31.90
2019-04-14T10:12:06.178Z,32.30
2019-04-14T10:14:35.441Z,31.30
2019-04-14T10:17:04.813Z,32.90
2019-04-14T10:19:34.117Z,33.80
2019-04-14T10:22:03.377Z,33.40
2019-04-14T10:24:32.658Z,32.00
2019-04-14T10:27:01.955Z,32.00
2019-04-14T10:29:31.246Z,30.00
2019-04-14T10:32:00.517Z,29.20
2019-04-14T10:34:29.826Z,27.20
2019-04-14T10:36:59.102Z,26.30
2019-04-14T10:39:28.354Z,25.40
2019-04-14T10:41:57.635Z,25.10
2019-04-14T10:44:26.937Z,24.20
2019-04-14T10:46:56.213Z,22.40
2019-04-14T10:49:25.474Z,21.40
2019-04-14T10:51:54.756Z,20.90
2019-04-14T10:54:24.107Z,20.10
2019-04-14T10:56:53.415Z,19.60
2019-04-14T10:59:22.665Z,19.00
2019-04-14T11:01:51.940Z,18.90
2019-04-14T11:04:21.210Z,18.80
2019-04-14T11:07:06.122Z,19.90
2019-04-14T11:09:35.545Z,18.80
2019-04-14T11:12:05.113Z,18.20
2019-04-14T11:14:34.461Z,18.10
2019-04-14T11:17:03.730Z,17.60
2019-04-14T11:19:33.021Z,17.30
2019-04-14T11:22:02.335Z,17.40
2019-04-14T11:24:31.586Z,17.40
2019-04-14T11:27:00.868Z,17.40
2019-04-14T11:29:30.126Z,17.50
2019-04-14T11:32:17.374Z,17.50
2019-04-14T11:35:08.800Z,17.20
2019-04-14T11:37:51.317Z,17.10
2019-04-14T11:40:23.245Z,17.30
2019-04-14T11:42:52.982Z,17.20
2019-04-14T11:45:22.466Z,17.10
2019-04-14T11:47:51.810Z,17.00
2019-04-14T11:50:21.118Z,16.60
2019-04-14T11:52:50.411Z,16.40
2019-04-14T11:55:19.785Z,16.30
2019-04-14T11:57:49.056Z,16.30
2019-04-14T12:00:45.559Z,16.20
2019-04-14T12:03:42.797Z,16.20
2019-04-14T12:06:39.843Z,16.20
2019-04-14T12:09:24.205Z,16.30
2019-04-14T12:11:53.469Z,16.20
2019-04-14T12:14:22.769Z,16.10
2019-04-14T12:16:52.033Z,15.90
2019-04-14T12:19:21.289Z,15.80
2019-04-14T12:21:50.565Z,15.70
2019-04-14T12:24:20.061Z,15.50
2019-04-14T12:26:49.413Z,15.50
2019-04-14T12:29:18.949Z,15.60
2019-04-14T12:31:48.756Z,15.60
2019-04-14T12:34:18.458Z,15.70
2019-04-14T12:36:48.047Z,15.70
2019-04-14T12:39:22.525Z,15.80
2019-04-14T12:41:57.477Z,15.80
2019-04-14T12:44:45.542Z,15.70
2019-04-14T12:47:40.367Z,15.80
2019-04-14T12:50:15.931Z,16.30
2019-04-14T12:52:45.219Z,16.10
2019-04-14T12:55:15.173Z,16.20
2019-04-14T12:57:52.778Z,16.30
2019-04-14T13:00:37.509Z,16.10
2019-04-14T13:03:06.809Z,15.90
2019-04-14T13:05:36.102Z,15.80
2019-04-14T13:08:05.495Z,15.70
2019-04-14T13:10:34.981Z,15.80
2019-04-14T13:13:04.295Z,15.70
2019-04-14T13:15:33.590Z,15.70
2019-04-14T13:18:02.853Z,15.60
2019-04-14T13:20:32.107Z,15.60
2019-04-14T13:23:01.406Z,15.60
2019-04-14T13:25:30.667Z,15.60
2019-04-14T13:27:59.918Z,15.80
2019-04-14T13:30:35.149Z,15.90
2019-04-14T13:33:04.743Z,16.10
2019-04-14T13:35:34.037Z,16.30
2019-04-14T13:38:03.310Z,16.30
2019-04-14T13:40:32.554Z,16.20
2019-04-14T13:43:01.854Z,16.40
2019-04-14T13:45:31.186Z,16.50
2019-04-14T13:48:00.449Z,17.20
2019-04-14T13:50:29.742Z,17.20
2019-04-14T13:52:59.038Z,16.80
2019-04-14T13:55:28.301Z,16.60
2019-04-14T13:57:57.570Z,16.40
2019-04-14T14:00:27.222Z,16.30
2019-04-14T14:05:25.229Z,16.30
2019-04-14T14:07:54.578Z,16.30
2019-04-14T14:10:23.838Z,16.30
2019-04-14T14:12:58.098Z,16.30
2019-04-14T14:15:55.349Z,16.30
2019-04-14T14:18:38.274Z,16.50
2019-04-14T14:21:26.522Z,17.40
2019-04-14T14:24:17.810Z,17.40
2019-04-14T14:26:48.214Z,17.10
2019-04-14T14:29:17.532Z,16.80
2019-04-14T14:31:46.949Z,16.40
2019-04-14T14:34:16.221Z,16.30
2019-04-14T14:36:45.492Z,16.00
2019-04-14T14:39:18.291Z,15.80
2019-04-14T14:41:49.450Z,15.80
2019-04-14T14:44:18.947Z,15.90
2019-04-14T14:47:13.301Z,15.80
2019-04-14T14:50:00.474Z,15.80
2019-04-14T14:52:30.694Z,15.70
2019-04-14T14:55:00.002Z,15.50
2019-04-14T14:57:29.357Z,15.50
2019-04-14T14:59:58.634Z,15.40
2019-04-14T15:02:27.881Z,15.30
2019-04-14T15:04:57.153Z,15.20
2019-04-14T15:07:26.461Z,15.10
2019-04-14T15:09:55.790Z,15.00
2019-04-14T15:12:25.061Z,15.00
2019-04-14T15:14:54.354Z,15.10
2019-04-14T15:17:23.612Z,15.20
2019-04-14T15:19:52.934Z,15.20
2019-04-14T15:22:22.201Z,15.30
2019-04-14T15:24:51.474Z,15.20
2019-04-14T15:27:20.770Z,15.20
2019-04-14T15:29:50.033Z,15.20
2019-04-14T15:32:19.291Z,15.20
2019-04-14T15:34:48.594Z,15.10
2019-04-14T15:37:17.906Z,15.10
2019-04-14T15:39:47.193Z,15.00
2019-04-14T15:42:16.463Z,15.00
2019-04-14T15:44:45.741Z,15.00
2019-04-14T15:47:15.039Z,15.00
2019-04-14T15:49:44.310Z,15.10
2019-04-14T15:52:13.557Z,15.00
2019-04-14T15:54:42.942Z,15.00
2019-04-14T15:57:29.657Z,14.90
2019-04-14T16:00:19.030Z,14.80
2019-04-14T16:03:06.327Z,14.80
2019-04-14T16:06:00.414Z,14.80
2019-04-14T16:08:33.510Z,14.90
2019-04-14T16:11:27.597Z,14.90
2019-04-14T16:14:27.858Z,14.80
2019-04-14T16:17:10.343Z,14.80
2019-04-14T16:19:49.124Z,14.70
2019-04-14T16:22:18.434Z,14.60
2019-04-14T16:24:47.693Z,14.50
2019-04-14T16:27:38.677Z,14.50
2019-04-14T16:30:26.534Z,14.40
2019-04-14T16:33:05.206Z,14.30
2019-04-14T16:35:34.473Z,14.10
2019-04-14T16:38:03.747Z,14.00
2019-04-14T16:40:33.002Z,14.00
2019-04-14T16:43:02.269Z,13.80
2019-04-14T16:48:00.229Z,14.00
2019-04-14T16:50:29.506Z,13.70
2019-04-14T16:53:07.213Z,13.70
2019-04-14T16:56:01.454Z,13.60
2019-04-14T16:58:40.506Z,13.60
2019-04-14T17:01:12.764Z,13.50
2019-04-14T17:03:42.071Z,13.40
2019-04-14T17:06:11.418Z,13.40
2019-04-14T17:08:40.706Z,13.30
2019-04-14T17:11:09.970Z,13.20
2019-04-14T17:13:42.539Z,13.10
2019-04-14T17:16:32.669Z,13.00
2019-04-14T17:19:09.658Z,13.00
2019-04-14T17:22:04.694Z,12.90
2019-04-14T17:24:58.893Z,12.80
2019-04-14T17:27:35.729Z,12.70
2019-04-14T17:30:23.651Z,12.40
2019-04-14T17:33:06.691Z,12.50
2019-04-14T17:35:53.857Z,12.40
2019-04-14T17:38:45.085Z,12.30
2019-04-14T17:41:26.594Z,12.30
2019-04-14T17:44:23.618Z,12.20
2019-04-14T17:47:17.589Z,12.20
2019-04-14T17:50:02.299Z,12.20
2019-04-14T17:52:43.105Z,12.20
2019-04-14T17:55:49.782Z,12.10
2019-04-14T17:58:25.003Z,12.00
2019-04-14T18:01:19.301Z,11.90
2019-04-14T18:03:55.623Z,11.90
2019-04-14T18:06:33.050Z,11.90
2019-04-14T18:09:36.678Z,11.80
2019-04-14T18:12:10.392Z,11.80
2019-04-14T18:14:47.813Z,11.80
2019-04-14T18:17:51.167Z,11.90
2019-04-14T18:20:25.858Z,11.70
2019-04-14T18:22:55.157Z,11.70
2019-04-14T18:25:24.474Z,11.70
2019-04-14T18:28:27.644Z,11.60
2019-04-14T18:31:06.343Z,11.60
2019-04-14T18:33:56.026Z,11.50
2019-04-14T18:36:34.682Z,11.30
2019-04-14T18:39:22.534Z,11.40
2019-04-14T18:41:58.933Z,11.40
2019-04-14T18:44:44.913Z,11.40
2019-04-14T18:47:23.762Z,11.30
2019-04-14T18:50:03.918Z,11.20
2019-04-14T18:52:58.274Z,11.20
2019-04-14T18:55:45.726Z,11.10
2019-04-14T18:58:45.976Z,11.00
2019-04-14T19:01:20.578Z,11.00
2019-04-14T19:06:19.339Z,11.00
2019-04-14T19:08:50.950Z,11.00
2019-04-14T19:11:42.573Z,10.90
2019-04-14T19:14:15.338Z,10.80
2019-04-14T19:16:48.372Z,11.00
2019-04-14T19:19:19.354Z,10.80
2019-04-14T19:21:48.754Z,11.70
2019-04-14T19:24:18.119Z,10.70
2019-04-14T19:26:47.438Z,10.70
2019-04-14T19:29:16.717Z,10.60
2019-04-14T19:31:46.018Z,10.50
2019-04-14T19:34:15.356Z,10.40
2019-04-14T19:36:44.629Z,10.90
2019-04-14T19:39:13.918Z,10.40
2019-04-14T19:41:43.233Z,10.40
2019-04-14T19:44:12.505Z,10.40
2019-04-14T19:46:41.770Z,10.40
2019-04-14T19:49:11.061Z,10.30
2019-04-14T19:51:40.329Z,10.30
2019-04-14T19:54:09.750Z,10.20
2019-04-14T19:56:39.019Z,10.20
2019-04-14T19:59:08.353Z,10.10
2019-04-14T20:01:37.634Z,10.10
2019-04-14T20:04:06.898Z,10.00
2019-04-14T20:06:36.185Z,9.90
2019-04-14T20:09:06.986Z,9.90
2019-04-14T20:11:36.467Z,9.90
2019-04-14T20:14:05.790Z,9.90
2019-04-14T20:17:02.378Z,9.90
2019-04-14T20:19:56.946Z,9.90
2019-04-14T20:22:39.516Z,9.70
2019-04-14T20:25:34.168Z,9.70
2019-04-14T20:28:28.670Z,9.70
2019-04-14T20:31:29.293Z,9.70
2019-04-14T20:33:58.757Z,9.60
2019-04-14T20:36:28.033Z,9.60
2019-04-14T20:38:57.465Z,9.60
2019-04-14T20:41:26.733Z,9.60
2019-04-14T20:43:55.992Z,9.50
2019-04-14T20:46:25.314Z,9.50
2019-04-14T20:48:54.601Z,9.60
2019-04-14T20:51:23.854Z,9.60
2019-04-14T20:53:53.235Z,9.60
2019-04-14T20:56:22.566Z,9.50
2019-04-14T20:58:51.938Z,9.50
2019-04-14T21:01:22.013Z,9.40
2019-04-14T21:03:59.366Z,9.60
2019-04-14T21:06:53.289Z,9.30
2019-04-14T21:09:30.269Z,9.30
2019-04-14T21:12:03.341Z,9.20
2019-04-14T21:14:55.026Z,9.20
2019-04-14T21:17:35.326Z,9.20
2019-04-14T21:20:11.289Z,9.40
2019-04-14T21:22:55.847Z,9.10
2019-04-14T21:25:59.258Z,9.10
2019-04-14T21:28:26.955Z,9.00
2019-04-14T21:31:14.240Z,9.00
2019-04-14T21:36:23.217Z,8.80
2019-04-14T21:39:23.490Z,8.80
2019-04-14T21:41:52.822Z,8.70
2019-04-14T21:44:22.094Z,8.70
2019-04-14T21:46:51.353Z,9.50
2019-04-14T21:49:20.631Z,8.70
2019-04-14T21:52:14.426Z,8.60
2019-04-14T21:54:44.470Z,8.60
2019-04-14T21:57:32.716Z,8.60
2019-04-14T22:00:23.446Z,8.50
2019-04-14T22:03:10.342Z,8.50
2019-04-14T22:05:45.525Z,8.50
2019-04-14T22:08:18.954Z,8.50
2019-04-14T22:10:55.057Z,8.50
2019-04-14T22:13:24.426Z,8.40
2019-04-14T22:15:53.678Z,8.50
2019-04-14T22:18:23.053Z,8.40
2019-04-14T22:20:52.326Z,8.50
2019-04-14T22:23:21.585Z,8.40
2019-04-14T22:25:50.842Z,8.40
2019-04-14T22:28:20.135Z,8.40
2019-04-14T22:30:49.431Z,8.40
2019-04-14T22:33:18.754Z,8.40
2019-04-14T22:35:48.026Z,8.30
2019-04-14T22:38:17.301Z,8.20
2019-04-14T22:40:46.565Z,8.20
2019-04-14T22:43:15.813Z,8.10
2019-04-14T22:45:45.305Z,8.10
2019-04-14T22:48:14.565Z,8.10
2019-04-14T22:50:43.899Z,8.20
2019-04-14T22:55:41.944Z,8.00
2019-04-14T22:58:11.270Z,8.00
2019-04-14T23:00:51.221Z,7.90
2019-04-14T23:03:45.577Z,7.90
2019-04-14T23:06:41.298Z,7.90
2019-04-14T23:09:37.586Z,7.80
2019-04-14T23:12:17.238Z,7.60
2019-04-14T23:15:05.477Z,7.70
2019-04-14T23:17:38.095Z,7.70
2019-04-14T23:20:23.172Z,7.80
2019-04-14T23:23:11.570Z,7.70
2019-04-14T23:25:40.829Z,7.60
2019-04-14T23:28:10.086Z,7.70
2019-04-14T23:30:39.381Z,7.70
2019-04-14T23:33:08.655Z,7.70
2019-04-14T23:35:37.982Z,7.60
2019-04-14T23:38:07.237Z,7.60
2019-04-14T23:40:36.605Z,7.60
2019-04-14T23:43:05.963Z,7.60
2019-04-14T23:45:35.225Z,8.00
2019-04-14T23:48:04.481Z,7.50
2019-04-14T23:50:33.749Z,7.60
2019-04-14T23:53:03.026Z,7.60
2019-04-14T23:55:32.372Z,7.60
2019-04-14T23:58:01.688Z,7.60
